Historyczne dane pomiarowe

Dodano dane terminowe – wersja testowa.

Dane z okresu 1951-2019

Wersja bazy: 1.34 [2019-03-16, lista zmian], aktualizacja planowana na 2019-04-15

Dane meteo z obszaru Polski uzyskane na podstawie danych udostępnionych przez Instytut Meteorologii i Gospodarki Wodnej – Państwowy Instytut Badawczy.

 

Wybierz Datę:    

       

TemperaturaWilgotnośćWiatrCiśnienieOpadyŚniegCzas trwania zjawisk
 Stacja t tx tn tng RH VA  wxwx mslp ppp RRR   cm mm wxwxwxwxwxwxwx
1961-08-14 12.7 19.2 6.6--- 3.7 0.3---- 0.0------------
1961-08-13 13.5 18.2 11.3--- 8.0 0.7---- 3.5------------
1961-08-12 18.7 24.9 15.4--- 6.3 0.7---- 16.8------------
1961-08-11 26.9 32.9 16.3--- 2.7 4.0---- 2.0------------
1961-08-10 23.8 30.4 16.1--- 1.0 2.7---- 0.0------------
1961-08-09 23.5 29.9 14.7--- 3.3 0.3---- 0.0------------
1961-08-08 21.3 25.9 14.1--- 5.0 1.0---- 0.0------------
1961-08-07 23.0 29.5 16.0--- 0.0 2.0---- 0.0------------
1961-08-06 22.7 27.9 11.9--- 0.0 2.7---- 0.0------------
1961-08-05 17.1 23.6 11.4--- 5.3 1.0---- 0.0------------
1961-08-04 15.7 20.9 13.3--- 4.0 0.7---- 0.0------------
1961-08-03 17.7 24.4 8.6--- 2.3 1.0---- 0.0------------
1961-08-02 17.7 25.4 8.3--- 0.0 1.0---- 0.0------------
1961-08-01 15.8 22.2 9.6--- 2.3 1.7---- 0.0------------
1961-07-31 13.7 18.2 10.2--- 5.3 3.7---- 0.0------------
1961-07-30 12.4 15.9 10.3--- 7.7 4.0---- 11.2------------
1961-07-29 14.0 23.0 11.4--- 7.7 2.7---- 28.8------------
1961-07-28 22.0 28.4 14.8--- 3.7 3.3---- 1.2------------
1961-07-27 21.3 25.9 9.1--- 2.3 4.0---- 0.0------------
1961-07-26 14.6 20.4 6.9--- 4.3 0.7---- 0.0------------
1961-07-25 13.5 17.1 10.5--- 5.3 2.0---- 0.0------------
1961-07-24 14.7 18.1 12.6--- 8.0 1.3---- 0.0------------
1961-07-23 16.5 20.9 7.6--- 5.0 0.3---- 0.0------------
1961-07-22 14.5 19.0 11.6--- 4.3 2.3---- 1.2------------
1961-07-21 14.6 19.9 11.3--- 4.3 2.7---- 6.9------------
1961-07-20 14.2 18.6 5.6--- 7.3 3.3---- 18.0------------
1961-07-19 13.7 21.6 5.3--- 3.7 1.3---- 0.0------------
1961-07-18 13.6 19.9 10.3--- 2.7 1.0---- 0.0------------
1961-07-17 15.3 22.4 12.6--- 4.3 1.7---- 2.8------------
1961-07-16 17.6 25.0 9.9--- 5.7 1.0---- 5.3------------
1961-07-15 18.6 23.8 6.8--- 2.3 1.7---- 0.0------------
1961-07-14 14.0 18.1 11.5--- 5.7 2.3---- 1.6------------
1961-07-13 21.2 28.4 13.9--- 3.7 2.0---- 5.7------------
1961-07-12 20.6 26.8 9.3--- 3.3 2.0---- 0.0------------
1961-07-11 15.2 20.4 8.3--- 4.3 2.0---- 0.0------------
1961-07-10 13.8 19.9 11.0--- 6.7 3.7---- 4.6------------
1961-07-09 15.8 23.9 5.0--- 3.7 1.7---- 1.1------------
1961-07-08 13.2 20.2 7.5--- 2.3 1.3---- 0.0------------
1961-07-07 14.3 18.9 3.7--- 3.3 1.3---- 0.0------------
1961-07-06 12.8 18.6 7.6--- 2.3 2.0---- 1.2------------
1961-07-05 14.7 21.6 12.3--- 7.7 1.7---- 0.0------------
1961-07-04 23.3 30.4 11.3--- 4.3 1.3---- 0.0------------
1961-07-03 20.0 29.8 8.2--- 0.0 1.3---- 0.0------------
1961-07-02 18.8 26.9 8.3--- 0.0 0.7---- 0.0------------
1961-07-01 17.9 25.9 7.8--- 1.0 0.3---- 0.0------------
1961-06-30 16.1 21.1 10.8--- 3.3 0.7---- 0.0------------
1961-06-29 14.9 18.9 4.3--- 4.0 1.0---- 0.0------------
1961-06-28 14.0 25.4 10.5--- 7.0 3.0---- 9.4------------
1961-06-27 26.1 30.4 12.7--- 2.3 4.0---- 0.0------------
1961-06-26 23.0 30.0 15.4--- 2.0 2.7---- 0.0------------
1961-06-25 21.4 27.9 7.8--- 0.3 2.0---- 0.0------------
1961-06-24 19.1 24.9 9.3--- 3.7 2.3---- 0.0------------
1961-06-23 16.6 22.4 10.3--- 6.0 1.7---- 8.5------------
1961-06-22 17.7 23.6 8.1--- 1.7 0.7---- 0.3------------
1961-06-21 16.4 23.4 5.0--- 2.3 0.7---- 0.0------------
1961-06-20 15.3 20.3 12.7--- 2.3 1.0---- 0.0------------
1961-06-19 21.7 28.0 11.5--- 2.7 0.7---- 0.0------------
1961-06-18 18.0 24.4 5.5--- 1.0 1.0---- 0.0------------
1961-06-17 14.7 21.1 5.0--- 1.3 0.3---- 0.0------------
1961-06-16 13.2 19.0 9.4--- 1.7 0.7---- 0.0------------
268.0 ms

 

Źródłem pochodzenia danych jest Instytut Meteorologii i Gospodarki Wodnej – Państwowy Instytut Badawczy. Dane Instytutu Meteorologii i Gospodarki Wodnej – Państwowego Instytutu Badawczego zostały przetworzone.

Dane źródłowe można odnaleźć na stronie https://dane.imgw.pl